Time;durP1;ratioP1;P1;durP2;ratioP2;P2;SDS_P1;SDS_P2;PMS_P1;PMS_P2;Temp;Humidity;BMP_temperature;BMP_pressure;BME280_temperature;BME280_humidity;BME280_pressure;Samples;Min_cycle;Max_cycle;Signal;HPM_P1;HPM_P2
2021/10/09 00:01:24;;;;;;;11.30;8.00;;;;;;;;;;5076485;28;20104;-82
2021/10/09 00:03:50;;;;;;;11.00;6.57;;;;;;;;;;5075592;28;20410;-82
2021/10/09 00:06:16;;;;;;;10.93;5.88;;;;;;;;;;5075596;28;20020;-82
2021/10/09 00:08:43;;;;;;;8.13;5.43;;;;;;;;;;5075471;28;20021;-82
2021/10/09 00:11:16;;;;;;;8.23;3.83;;;;;;;;;;5076357;28;20116;-82
2021/10/09 00:13:42;;;;;;;6.40;3.63;;;;;;;;;;5075502;28;20437;-82
2021/10/09 00:16:08;;;;;;;6.28;3.40;;;;;;;;;;5075294;28;20045;-82
2021/10/09 00:18:34;;;;;;;5.03;3.30;;;;;;;;;;5076072;28;20020;-81
2021/10/09 00:21:00;;;;;;;6.63;2.90;;;;;;;;;;5076437;28;20028;-81
2021/10/09 00:23:26;;;;;;;5.07;2.60;;;;;;;;;;5076338;28;20020;-81
2021/10/09 00:25:55;;;;;;;4.70;2.35;;;;;;;;;;5075251;28;20091;-82
2021/10/09 00:28:21;;;;;;;4.82;2.65;;;;;;;;;;5076311;28;20020;-81
2021/10/09 00:30:47;;;;;;;2.70;1.80;;;;;;;;;;5077258;28;20371;-82
2021/10/09 00:33:13;;;;;;;5.45;1.80;;;;;;;;;;5079701;28;20024;-82
2021/10/09 00:35:39;;;;;;;3.53;1.83;;;;;;;;;;5078928;28;20024;-82
2021/10/09 00:38:05;;;;;;;2.63;1.77;;;;;;;;;;5079907;28;20115;-83
2021/10/09 00:40:31;;;;;;;3.72;1.80;;;;;;;;;;5079911;28;20082;-83
2021/10/09 00:42:57;;;;;;;2.13;1.65;;;;;;;;;;5080097;28;20095;-83
2021/10/09 00:45:23;;;;;;;7.28;2.05;;;;;;;;;;5079881;28;20031;-83
2021/10/09 00:47:51;;;;;;;2.90;1.92;;;;;;;;;;5079512;28;20419;-83
2021/10/09 00:50:17;;;;;;;5.88;1.50;;;;;;;;;;5079724;28;20028;-83
2021/10/09 00:52:44;;;;;;;3.97;1.85;;;;;;;;;;5079784;28;20024;-83
2021/10/09 00:55:11;;;;;;;7.05;1.80;;;;;;;;;;5078307;28;20103;-83
2021/10/09 00:57:56;;;;;;;3.28;1.77;;;;;;;;;;5079732;28;20394;-83
2021/10/09 01:00:22;;;;;;;4.10;1.95;;;;;;;;;;5079735;28;20364;-82
2021/10/09 01:02:49;;;;;;;5.18;3.25;;;;;;;;;;5079367;28;20025;-82
2021/10/09 01:05:16;;;;;;;6.30;2.38;;;;;;;;;;5079665;28;20038;-82
2021/10/09 01:07:42;;;;;;;6.30;2.78;;;;;;;;;;5077985;28;20406;-82
2021/10/09 01:10:08;;;;;;;4.90;1.73;;;;;;;;;;5078920;28;20045;-82
2021/10/09 01:12:34;;;;;;;4.22;2.17;;;;;;;;;;5079410;28;20024;-82
2021/10/09 01:15:14;;;;;;;1.80;1.40;;;;;;;;;;5077936;28;20032;-82
2021/10/09 01:17:40;;;;;;;8.60;2.08;;;;;;;;;;5078969;28;20049;-82
2021/10/09 01:20:11;;;;;;;6.85;3.05;;;;;;;;;;5079103;28;20058;-82
2021/10/09 01:22:37;;;;;;;4.07;1.80;;;;;;;;;;5078880;28;20082;-82
2021/10/09 01:25:04;;;;;;;2.22;1.60;;;;;;;;;;5078000;28;20071;-82
2021/10/09 01:27:30;;;;;;;2.75;1.52;;;;;;;;;;5077620;28;20066;-82
2021/10/09 01:29:56;;;;;;;3.30;1.42;;;;;;;;;;5078843;28;20053;-82
2021/10/09 01:32:22;;;;;;;5.47;1.67;;;;;;;;;;5078976;28;20103;-82
2021/10/09 01:34:48;;;;;;;3.67;1.48;;;;;;;;;;5078761;28;20023;-82
2021/10/09 01:37:14;;;;;;;4.63;1.90;;;;;;;;;;5078775;28;20035;-82
2021/10/09 01:39:47;;;;;;;4.97;2.08;;;;;;;;;;5078927;28;20032;-82
2021/10/09 01:42:14;;;;;;;1.92;1.30;;;;;;;;;;5078299;28;20090;-82
2021/10/09 01:44:40;;;;;;;3.67;1.65;;;;;;;;;;5078493;28;20032;-82
2021/10/09 01:47:06;;;;;;;2.60;1.35;;;;;;;;;;5078677;28;20055;-82
2021/10/09 01:49:32;;;;;;;4.60;1.80;;;;;;;;;;5078716;28;20027;-82
2021/10/09 01:51:58;;;;;;;4.72;1.85;;;;;;;;;;5078605;28;20025;-82
2021/10/09 01:54:24;;;;;;;4.78;1.70;;;;;;;;;;5078393;28;20020;-82
2021/10/09 01:56:50;;;;;;;4.25;1.85;;;;;;;;;;5078019;28;20025;-82
2021/10/09 01:59:34;;;;;;;3.92;1.52;;;;;;;;;;5078221;28;20116;-82
2021/10/09 02:02:01;;;;;;;2.95;1.45;;;;;;;;;;5078191;28;20108;-81
2021/10/09 02:04:27;;;;;;;3.92;1.92;;;;;;;;;;5078068;28;20124;-82
2021/10/09 02:06:53;;;;;;;4.70;2.67;;;;;;;;;;5094114;28;20028;-82
2021/10/09 02:09:19;;;;;;;9.10;3.08;;;;;;;;;;5078026;28;20048;-82
2021/10/09 02:11:50;;;;;;;7.65;2.63;;;;;;;;;;5077749;28;20025;-82
2021/10/09 02:28:00;;;;;;;4.95;1.88;;;;;;;;;;5036039;28;20408;-83
2021/10/09 02:30:26;;;;;;;4.55;1.77;;;;;;;;;;5019395;28;20505;-82
2021/10/09 02:32:52;;;;;;;3.90;1.73;;;;;;;;;;5035918;28;20057;-82
2021/10/09 02:35:19;;;;;;;3.42;1.73;;;;;;;;;;5035965;28;20047;-83
2021/10/09 02:37:45;;;;;;;2.47;1.60;;;;;;;;;;5019633;28;20470;-82
2021/10/09 02:40:11;;;;;;;4.80;1.60;;;;;;;;;;5035991;28;20021;-82
2021/10/09 02:42:37;;;;;;;4.65;1.70;;;;;;;;;;5036026;28;20021;-83
2021/10/09 02:45:04;;;;;;;2.45;1.60;;;;;;;;;;5035533;28;20049;-83
2021/10/09 02:47:30;;;;;;;4.20;1.88;;;;;;;;;;5019223;28;20156;-82
2021/10/09 02:49:56;;;;;;;3.05;1.73;;;;;;;;;;5045927;28;20029;-82
2021/10/09 02:52:22;;;;;;;4.18;1.60;;;;;;;;;;5076029;28;20406;-82
2021/10/09 02:54:48;;;;;;;5.38;1.85;;;;;;;;;;5076086;28;20079;-82
2021/10/09 02:57:14;;;;;;;4.22;1.60;;;;;;;;;;5078155;28;20028;-83
2021/10/09 02:59:40;;;;;;;3.05;1.60;;;;;;;;;;5077674;28;20044;-83
2021/10/09 03:02:09;;;;;;;3.38;1.80;;;;;;;;;;5077533;28;20025;-83
2021/10/09 03:04:35;;;;;;;4.22;1.58;;;;;;;;;;5077541;28;20028;-84
2021/10/09 03:07:01;;;;;;;4.20;2.13;;;;;;;;;;5077227;28;20028;-83
2021/10/09 03:09:27;;;;;;;2.83;1.90;;;;;;;;;;5077463;28;20021;-84
2021/10/09 03:11:54;;;;;;;3.72;1.90;;;;;;;;;;5077476;28;20122;-83
2021/10/09 03:17:23;;;;;;;3.53;1.83;;;;;;;;;;5077141;28;20051;-82
2021/10/09 03:19:49;;;;;;;2.22;1.70;;;;;;;;;;5077005;28;20025;-82
2021/10/09 03:22:15;;;;;;;3.58;1.92;;;;;;;;;;5077054;28;20414;-83
2021/10/09 03:24:41;;;;;;;3.83;1.88;;;;;;;;;;5077350;28;20074;-82
2021/10/09 03:27:07;;;;;;;2.25;1.73;;;;;;;;;;5076978;28;20435;-82
2021/10/09 03:29:34;;;;;;;5.30;2.22;;;;;;;;;;5075968;28;20029;-83
2021/10/09 03:32:00;;;;;;;3.83;1.92;;;;;;;;;;5077126;28;20017;-83
2021/10/09 03:34:32;;;;;;;2.80;2.10;;;;;;;;;;5077186;28;20099;-83
2021/10/09 03:36:58;;;;;;;;;;;;;;;;;;5077335;28;20032;-83
2021/10/09 03:39:24;;;;;;;4.43;2.03;;;;;;;;;;5076003;28;19954;-83
2021/10/09 03:41:55;;;;;;;6.75;2.75;;;;;;;;;;5076755;28;20107;-83
2021/10/09 03:44:21;;;;;;;6.90;3.13;;;;;;;;;;5076995;28;20043;-83
2021/10/09 03:46:58;;;;;;;5.32;2.95;;;;;;;;;;5076890;28;20273;-83
2021/10/09 03:50:05;;;;;;;4.72;2.47;;;;;;;;;;5076979;28;20296;-83
2021/10/09 03:52:38;;;;;;;7.50;3.47;;;;;;;;;;5075693;28;20071;-83
2021/10/09 03:55:05;;;;;;;10.35;6.75;;;;;;;;;;5075861;28;20070;-83
2021/10/09 03:57:31;;;;;;;7.78;4.95;;;;;;;;;;5075513;28;20032;-84
2021/10/09 03:59:57;;;;;;;7.18;4.40;;;;;;;;;;5077077;28;20024;-83
2021/10/09 04:02:23;;;;;;;11.75;5.80;;;;;;;;;;5077074;28;20028;-84
2021/10/09 04:04:50;;;;;;;13.98;5.00;;;;;;;;;;5077818;28;20100;-83
2021/10/09 04:07:16;;;;;;;17.15;5.97;;;;;;;;;;5080591;28;20028;-83
2021/10/09 04:09:42;;;;;;;24.00;6.68;;;;;;;;;;5079814;28;20028;-83
2021/10/09 04:12:08;;;;;;;7.15;2.78;;;;;;;;;;5080091;28;20036;-83
2021/10/09 04:14:53;;;;;;;4.25;2.15;;;;;;;;;;5080238;28;20021;-83
2021/10/09 04:17:19;;;;;;;6.03;1.83;;;;;;;;;;5080016;28;20083;-83
2021/10/09 04:19:45;;;;;;;9.00;2.30;;;;;;;;;;5079193;28;20025;-83
2021/10/09 04:22:11;;;;;;;9.27;3.05;;;;;;;;;;5079907;28;20033;-83
2021/10/09 04:24:37;;;;;;;3.65;1.90;;;;;;;;;;5079254;28;20060;-83
2021/10/09 04:27:03;;;;;;;3.72;1.80;;;;;;;;;;5079024;28;20032;-83
2021/10/09 04:29:30;;;;;;;6.35;2.88;;;;;;;;;;5080456;28;20103;-84
2021/10/09 04:31:56;;;;;;;12.15;3.38;;;;;;;;;;5079416;28;20033;-83
2021/10/09 04:34:22;;;;;;;10.88;3.55;;;;;;;;;;5080018;28;20440;-83
2021/10/09 04:36:48;;;;;;;10.43;4.15;;;;;;;;;;5080412;28;20295;-83
2021/10/09 04:39:14;;;;;;;10.55;4.57;;;;;;;;;;5080390;28;20044;-83
2021/10/09 04:41:40;;;;;;;7.00;3.28;;;;;;;;;;5080136;28;20028;-83
2021/10/09 04:44:17;;;;;;;11.52;3.88;;;;;;;;;;5079814;28;20052;-83
2021/10/09 04:46:43;;;;;;;11.43;4.28;;;;;;;;;;5079775;28;20071;-83
2021/10/09 04:49:09;;;;;;;8.40;3.17;;;;;;;;;;5080059;28;20024;-83
2021/10/09 04:51:36;;;;;;;7.55;2.67;;;;;;;;;;5079729;28;20107;-83
2021/10/09 04:54:02;;;;;;;5.97;2.65;;;;;;;;;;5078661;28;20040;-83
2021/10/09 04:56:28;;;;;;;4.30;2.40;;;;;;;;;;5079519;28;20025;-84
2021/10/09 04:58:54;;;;;;;7.32;2.75;;;;;;;;;;5079675;28;20025;-83
2021/10/09 05:04:23;;;;;;;3.75;2.30;;;;;;;;;;5079872;28;20055;-83
2021/10/09 05:06:49;;;;;;;6.15;3.15;;;;;;;;;;5078391;28;20051;-83
2021/10/09 05:09:16;;;;;;;9.18;3.47;;;;;;;;;;5079473;28;20112;-82
2021/10/09 05:11:42;;;;;;;11.23;4.85;;;;;;;;;;5078931;28;20426;-82
2021/10/09 05:14:17;;;;;;;12.98;7.95;;;;;;;;;;5079577;28;20337;-82
2021/10/09 05:16:43;;;;;;;13.80;6.97;;;;;;;;;;5078242;28;20055;-82
2021/10/09 05:19:09;;;;;;;27.88;9.60;;;;;;;;;;5078036;28;20119;-82
2021/10/09 05:21:35;;;;;;;20.02;8.13;;;;;;;;;;5079033;28;20028;-83
2021/10/09 05:24:01;;;;;;;18.95;7.75;;;;;;;;;;5078939;28;20051;-82
2021/10/09 05:26:28;;;;;;;23.35;9.38;;;;;;;;;;5076780;28;20059;-83
2021/10/09 05:28:55;;;;;;;25.85;9.05;;;;;;;;;;5079408;28;20028;-83
2021/10/09 05:31:25;;;;;;;14.63;7.28;;;;;;;;;;5078898;28;20411;-83
2021/10/09 05:33:52;;;;;;;10.73;4.93;;;;;;;;;;5078972;28;20020;-83
2021/10/09 05:36:18;;;;;;;5.35;3.45;;;;;;;;;;5079203;28;20031;-84
2021/10/09 05:38:44;;;;;;;4.78;2.72;;;;;;;;;;5077935;28;20020;-84
2021/10/09 05:41:10;;;;;;;4.72;3.03;;;;;;;;;;5078843;28;20115;-84
2021/10/09 05:43:36;;;;;;;3.85;2.60;;;;;;;;;;5078613;28;20028;-83
2021/10/09 05:46:02;;;;;;;4.72;2.42;;;;;;;;;;5078526;28;20466;-83
2021/10/09 05:48:28;;;;;;;4.25;2.72;;;;;;;;;;5078332;28;20111;-83
2021/10/09 05:51:02;;;;;;;5.57;3.90;;;;;;;;;;5078347;28;20480;-83
2021/10/09 05:53:46;;;;;;;6.93;3.67;;;;;;;;;;5078398;28;20020;-82
2021/10/09 06:47:33;;;;;;;14.57;6.90;;;;;;;;;;5057490;28;20025;-80
2021/10/09 07:00:55;;;;;;;5.80;3.08;;;;;;;;;;5057463;28;20031;-81
2021/10/09 07:03:21;;;;;;;40.38;14.27;;;;;;;;;;5056058;28;20402;-81
2021/10/09 07:05:48;;;;;;;73.65;33.55;;;;;;;;;;5055725;28;20312;-80
2021/10/09 07:08:15;;;;;;;61.25;31.23;;;;;;;;;;5056905;28;20035;-81
2021/10/09 07:10:44;;;;;;;47.80;25.40;;;;;;;;;;5057135;28;20021;-80
2021/10/09 07:13:11;;;;;;;30.35;18.25;;;;;;;;;;5056910;28;20025;-80
2021/10/09 07:15:37;;;;;;;32.05;21.63;;;;;;;;;;5056750;28;20040;-80
2021/10/09 07:18:04;;;;;;;36.03;25.73;;;;;;;;;;5056818;28;20056;-81
2021/10/09 07:20:30;;;;;;;30.23;20.90;;;;;;;;;;5055859;28;20029;-85
2021/10/09 07:22:56;;;;;;;24.67;19.30;;;;;;;;;;5057507;28;20029;-85
2021/10/09 07:25:22;;;;;;;18.88;13.25;;;;;;;;;;5057806;28;20048;-85
2021/10/09 07:27:49;;;;;;;15.90;9.30;;;;;;;;;;5057287;28;20021;-85
2021/10/09 07:33:18;;;;;;;7.30;4.88;;;;;;;;;;5057424;28;20029;-85
2021/10/09 07:35:44;;;;;;;9.85;6.60;;;;;;;;;;5056245;28;20029;-86
2021/10/09 07:38:11;;;;;;;16.42;8.10;;;;;;;;;;5057593;28;20055;-86
2021/10/09 07:40:37;;;;;;;20.30;11.35;;;;;;;;;;5061673;28;20033;-86
2021/10/09 07:43:03;;;;;;;15.50;8.77;;;;;;;;;;5060419;28;20430;-89
2021/10/09 07:45:29;;;;;;;24.00;13.05;;;;;;;;;;5060114;28;20037;-86
2021/10/09 07:47:55;;;;;;;32.28;15.75;;;;;;;;;;5060064;28;20037;-86
2021/10/09 07:50:21;;;;;;;32.00;15.02;;;;;;;;;;5061115;28;20052;-86
2021/10/09 07:52:47;;;;;;;20.13;9.65;;;;;;;;;;5061441;28;20099;-86
2021/10/09 07:55:13;;;;;;;18.02;9.02;;;;;;;;;;5060691;28;20024;-85
2021/10/09 07:57:40;;;;;;;21.10;9.80;;;;;;;;;;5060033;28;20056;-85
2021/10/09 08:03:09;;;;;;;11.52;6.28;;;;;;;;;;5061208;28;20078;-85
2021/10/09 08:05:37;;;;;;;19.42;11.82;;;;;;;;;;5061249;28;20033;-86
2021/10/09 08:08:03;;;;;;;15.88;10.43;;;;;;;;;;5060616;28;20403;-87
2021/10/09 08:10:29;;;;;;;17.45;10.88;;;;;;;;;;5059812;28;20017;-87
2021/10/09 08:12:55;;;;;;;13.73;6.45;;;;;;;;;;5059785;28;20025;-86
2021/10/09 08:15:22;;;;;;;17.08;7.45;;;;;;;;;;5060499;28;20059;-87
2021/10/09 08:17:48;;;;;;;18.13;8.40;;;;;;;;;;5059640;28;20049;-87
2021/10/09 08:20:15;;;;;;;19.27;9.38;;;;;;;;;;5060990;28;20105;-87
2021/10/09 08:22:54;;;;;;;16.85;10.95;;;;;;;;;;5059670;28;20029;-86
2021/10/09 08:41:12;;;;;;;11.75;6.53;;;;;;;;;;5019040;28;20502;-86
2021/10/09 08:43:42;;;;;;;17.88;8.68;;;;;;;;;;5018867;28;20320;-87
2021/10/09 08:46:08;;;;;;;17.02;9.70;;;;;;;;;;5018185;28;20084;-86
2021/10/09 08:48:40;;;;;;;11.52;6.70;;;;;;;;;;5018729;28;20022;-86
2021/10/09 08:51:07;;;;;;;12.68;5.07;;;;;;;;;;5034323;28;20412;-86
2021/10/09 08:53:35;;;;;;;7.68;4.15;;;;;;;;;;5018515;28;20037;-86
2021/10/09 08:56:02;;;;;;;7.20;4.50;;;;;;;;;;5018253;28;20496;-86
2021/10/09 08:58:33;;;;;;;6.55;3.92;;;;;;;;;;5034991;28;20116;-86
2021/10/09 09:07:02;;;;;;;9.25;5.72;;;;;;;;;;5018343;28;20125;-87
2021/10/09 09:33:56;;;;;;;8.55;4.07;;;;;;;;;;5059301;28;20056;-86
2021/10/09 09:39:09;;;;;;;12.90;8.18;;;;;;;;;;5059198;28;20067;-86
2021/10/09 09:41:45;;;;;;;12.68;9.80;;;;;;;;;;5059074;28;20029;-86
2021/10/09 09:44:16;;;;;;;14.48;10.70;;;;;;;;;;5058997;28;20024;-87
2021/10/09 09:46:42;;;;;;;11.50;7.97;;;;;;;;;;5059172;28;20423;-86
2021/10/09 09:49:09;;;;;;;16.25;8.63;;;;;;;;;;5059175;28;20021;-85
2021/10/09 09:51:38;;;;;;;11.38;7.28;;;;;;;;;;5059106;28;20331;-86
2021/10/09 09:54:05;;;;;;;7.63;5.45;;;;;;;;;;5059166;28;20043;-86
2021/10/09 09:56:31;;;;;;;5.13;4.05;;;;;;;;;;5057955;28;20346;-86
2021/10/09 09:58:59;;;;;;;6.72;4.30;;;;;;;;;;5058971;28;20025;-83
2021/10/09 10:04:33;;;;;;;9.20;4.75;;;;;;;;;;5058772;28;20036;-86
2021/10/09 10:07:00;;;;;;;7.60;4.70;;;;;;;;;;5058320;28;20032;-86
2021/10/09 10:09:30;;;;;;;16.77;8.48;;;;;;;;;;5058661;28;20100;-88
2021/10/09 10:12:00;;;;;;;13.80;6.20;;;;;;;;;;5058486;28;20128;-87
2021/10/09 10:14:28;;;;;;;13.82;7.15;;;;;;;;;;5058892;28;20052;-86
2021/10/09 10:20:45;;;;;;;14.73;8.05;;;;;;;;;;5043737;28;20047;-86
2021/10/09 10:23:11;;;;;;;9.77;6.25;;;;;;;;;;5057381;28;20067;-87
2021/10/09 10:25:37;;;;;;;11.55;6.68;;;;;;;;;;5058624;28;20032;-86
2021/10/09 10:28:17;;;;;;;23.05;10.75;;;;;;;;;;5058328;28;20021;-86
2021/10/09 10:37:29;;;;;;;10.40;5.75;;;;;;;;;;5058563;28;20024;-86
2021/10/09 10:39:55;;;;;;;13.23;6.68;;;;;;;;;;5057938;28;20494;-86
2021/10/09 10:42:28;;;;;;;13.55;6.38;;;;;;;;;;5058241;28;20033;-87
2021/10/09 10:45:04;;;;;;;10.63;5.57;;;;;;;;;;5057788;28;20029;-86
2021/10/09 10:47:48;;;;;;;8.88;4.28;;;;;;;;;;5058095;28;20029;-86
2021/10/09 10:53:33;;;;;;;10.10;6.72;;;;;;;;;;5016735;28;20025;-86
2021/10/09 10:56:09;;;;;;;9.77;4.63;;;;;;;;;;5016604;28;20145;-87
2021/10/09 10:58:35;;;;;;;10.85;7.53;;;;;;;;;;5016604;28;20018;-87
2021/10/09 11:01:35;;;;;;;8.20;5.63;;;;;;;;;;5016200;28;20436;-87
2021/10/09 11:04:01;;;;;;;8.68;6.57;;;;;;;;;;5016346;28;20130;-86
2021/10/09 11:06:27;;;;;;;11.60;7.30;;;;;;;;;;5016282;28;20041;-86
2021/10/09 11:08:56;;;;;;;10.55;6.18;;;;;;;;;;5016181;28;20113;-86
2021/10/09 11:11:35;;;;;;;9.85;5.72;;;;;;;;;;5016291;28;20030;-85
2021/10/09 11:14:01;;;;;;;10.45;6.35;;;;;;;;;;5015848;28;20022;-86
2021/10/09 11:16:33;;;;;;;11.43;7.95;;;;;;;;;;5015952;28;20042;-85
2021/10/09 11:18:59;;;;;;;;;;;;;;;;;;5016440;28;20033;-85
2021/10/09 11:21:25;;;;;;;11.05;7.10;;;;;;;;;;5015934;28;19943;-87
2021/10/09 11:23:52;;;;;;;14.30;8.55;;;;;;;;;;5016045;28;20337;-86
2021/10/09 11:26:19;;;;;;;17.05;9.73;;;;;;;;;;5016063;28;20022;-87
2021/10/09 11:28:46;;;;;;;24.05;12.93;;;;;;;;;;5026562;28;20083;-87
2021/10/09 11:31:22;;;;;;;11.82;6.45;;;;;;;;;;5037726;28;20022;-86
2021/10/09 11:33:53;;;;;;;13.02;7.35;;;;;;;;;;5037746;28;20021;-86
2021/10/09 11:36:19;;;;;;;8.75;4.80;;;;;;;;;;5037535;28;20017;-86
2021/10/09 11:38:45;;;;;;;9.65;5.57;;;;;;;;;;5037767;28;20030;-86
2021/10/09 11:41:15;;;;;;;10.20;4.80;;;;;;;;;;5036593;28;20056;-87
2021/10/09 11:43:52;;;;;;;8.57;5.80;;;;;;;;;;5036592;28;20025;-87
2021/10/09 11:55:17;;;;;;;14.18;8.75;;;;;;;;;;5037744;28;20479;-87
2021/10/09 11:57:43;;;;;;;19.80;9.35;;;;;;;;;;5037333;28;20029;-87
2021/10/09 12:00:46;;;;;;;19.55;13.48;;;;;;;;;;5037530;28;20032;-86
2021/10/09 12:03:31;;;;;;;25.48;12.50;;;;;;;;;;5036352;28;20053;-87
2021/10/09 12:05:58;;;;;;;18.05;10.40;;;;;;;;;;5036273;28;20433;-86
2021/10/09 12:08:26;;;;;;;22.00;14.00;;;;;;;;;;5037453;28;20343;-86
2021/10/09 12:11:07;;;;;;;18.25;10.25;;;;;;;;;;5036225;28;20105;-86
2021/10/09 12:13:44;;;;;;;18.67;8.40;;;;;;;;;;5037202;28;20025;-86
2021/10/09 12:16:10;;;;;;;12.88;7.53;;;;;;;;;;5035908;28;20033;-86
2021/10/09 12:18:46;;;;;;;15.43;8.25;;;;;;;;;;5036185;28;20026;-86
2021/10/09 12:21:12;;;;;;;14.02;8.15;;;;;;;;;;5050492;28;20045;-86
2021/10/09 12:23:38;;;;;;;14.40;7.28;;;;;;;;;;5057132;28;20024;-86
2021/10/09 12:26:14;;;;;;;12.30;7.35;;;;;;;;;;5058246;28;20071;-87
2021/10/09 12:29:06;;;;;;;21.95;12.20;;;;;;;;;;5060850;28;20087;-84
2021/10/09 12:31:34;;;;;;;18.30;9.55;;;;;;;;;;5058174;28;20029;-85
2021/10/09 12:34:01;;;;;;;17.13;8.52;;;;;;;;;;5059336;28;20420;-84
2021/10/09 12:36:41;;;;;;;16.42;8.43;;;;;;;;;;5060243;28;20029;-86
2021/10/09 12:39:23;;;;;;;18.23;8.60;;;;;;;;;;5060480;28;20029;-86
2021/10/09 12:41:49;;;;;;;;;;;;;;;;;;5060721;28;20025;-85
2021/10/09 12:44:15;;;;;;;18.67;10.07;;;;;;;;;;5060284;28;19908;-85
2021/10/09 12:49:45;;;;;;;19.27;9.27;;;;;;;;;;5060473;28;20024;-85
2021/10/09 12:52:11;;;;;;;25.95;12.40;;;;;;;;;;5060379;28;20021;-85
2021/10/09 12:54:37;;;;;;;44.17;20.70;;;;;;;;;;5058689;28;20033;-85
2021/10/09 12:57:06;;;;;;;53.00;30.02;;;;;;;;;;5059901;28;20040;-86
2021/10/09 12:59:33;;;;;;;57.22;28.85;;;;;;;;;;5059063;28;20063;-87
2021/10/09 13:01:59;;;;;;;36.45;19.33;;;;;;;;;;5060015;28;20025;-87
2021/10/09 13:04:25;;;;;;;42.17;20.42;;;;;;;;;;5060349;28;20212;-86
2021/10/09 13:06:51;;;;;;;29.58;15.88;;;;;;;;;;5059827;28;20021;-86
2021/10/09 13:09:17;;;;;;;25.45;13.35;;;;;;;;;;5059746;28;20311;-86
2021/10/09 13:11:48;;;;;;;25.45;12.30;;;;;;;;;;5058635;28;20029;-86
2021/10/09 13:14:14;;;;;;;32.55;15.95;;;;;;;;;;5058182;28;20037;-85
2021/10/09 13:16:40;;;;;;;30.95;14.38;;;;;;;;;;5059457;28;20036;-86
2021/10/09 13:19:06;;;;;;;32.13;15.27;;;;;;;;;;5059869;28;20025;-86
2021/10/09 13:21:33;;;;;;;37.55;15.05;;;;;;;;;;5058571;28;20044;-86
2021/10/09 13:23:59;;;;;;;26.88;11.82;;;;;;;;;;5058575;28;20349;-86
2021/10/09 13:26:25;;;;;;;21.05;10.73;;;;;;;;;;5058466;28;20033;-86
2021/10/09 13:28:51;;;;;;;24.90;11.25;;;;;;;;;;5059678;28;20044;-86
2021/10/09 13:31:17;;;;;;;23.27;12.25;;;;;;;;;;5059721;28;20024;-87
2021/10/09 13:33:43;;;;;;;31.98;14.73;;;;;;;;;;5059388;28;20021;-86
2021/10/09 13:36:09;;;;;;;32.38;18.65;;;;;;;;;;5059073;28;20028;-86
2021/10/09 13:38:39;;;;;;;37.97;19.33;;;;;;;;;;5059103;28;20479;-86
2021/10/09 13:41:05;;;;;;;34.72;22.95;;;;;;;;;;5058337;28;20032;-86
2021/10/09 13:43:31;;;;;;;34.50;23.08;;;;;;;;;;5059489;28;20029;-86
2021/10/09 13:45:57;;;;;;;35.00;24.55;;;;;;;;;;5059048;28;20025;-86
2021/10/09 13:48:23;;;;;;;27.98;15.20;;;;;;;;;;5059005;28;20070;-86
2021/10/09 13:50:51;;;;;;;20.40;13.52;;;;;;;;;;5058736;28;20322;-86
2021/10/09 13:53:18;;;;;;;21.90;15.77;;;;;;;;;;5059017;28;20140;-86
2021/10/09 13:55:44;;;;;;;32.35;22.92;;;;;;;;;;5059128;28;20395;-86
2021/10/09 13:58:11;;;;;;;28.98;18.38;;;;;;;;;;5059019;28;20027;-86
2021/10/09 14:00:37;;;;;;;23.55;16.90;;;;;;;;;;5057787;28;20458;-88
2021/10/09 14:06:07;;;;;;;16.55;10.65;;;;;;;;;;5077574;28;20036;-91
2021/10/09 14:08:33;;;;;;;14.07;9.15;;;;;;;;;;5079139;28;20391;-90
2021/10/09 14:11:00;;;;;;;16.30;9.77;;;;;;;;;;5078197;28;20032;-91
2021/10/09 14:13:27;;;;;;;13.30;9.20;;;;;;;;;;5077771;28;20035;-91
2021/10/09 14:15:54;;;;;;;16.75;10.05;;;;;;;;;;5077714;28;20039;-90
2021/10/09 14:18:20;;;;;;;14.13;10.05;;;;;;;;;;5077609;28;20029;-92
2021/10/09 14:20:50;;;;;;;15.02;10.73;;;;;;;;;;5078346;28;20411;-91
2021/10/09 14:23:16;;;;;;;16.75;11.10;;;;;;;;;;5077355;28;20021;-80
2021/10/09 14:25:43;;;;;;;14.90;10.70;;;;;;;;;;5077749;28;20024;-84
2021/10/09 14:28:10;;;;;;;18.90;10.85;;;;;;;;;;5077845;28;20070;-83
2021/10/09 14:30:37;;;;;;;16.88;11.75;;;;;;;;;;5077759;28;20326;-83
2021/10/09 14:33:03;;;;;;;18.70;11.82;;;;;;;;;;5077353;28;20029;-82
2021/10/09 14:35:29;;;;;;;20.85;12.38;;;;;;;;;;5077546;28;20031;-80
2021/10/09 14:37:55;;;;;;;23.30;14.35;;;;;;;;;;5078382;28;20031;-92
2021/10/09 14:40:21;;;;;;;31.25;17.02;;;;;;;;;;5077820;28;20403;-79
2021/10/09 14:42:48;;;;;;;37.00;19.08;;;;;;;;;;5076069;28;20041;-81
2021/10/09 14:45:15;;;;;;;33.92;16.55;;;;;;;;;;5077206;28;20024;-82
2021/10/09 15:19:56;;;;;;;19.95;13.85;;;;;;;;;;5076914;28;20056;-79
2021/10/09 15:22:22;;;;;;;18.25;12.30;;;;;;;;;;5075728;28;20158;-81
2021/10/09 15:24:48;;;;;;;19.40;13.98;;;;;;;;;;5076722;28;20033;-80
2021/10/09 15:27:14;;;;;;;19.02;12.40;;;;;;;;;;5076677;28;20410;-89
2021/10/09 15:29:40;;;;;;;17.35;9.20;;;;;;;;;;5077305;28;20052;-82
2021/10/09 15:38:14;;;;;;;13.90;7.93;;;;;;;;;;5077663;28;20334;-87
2021/10/09 15:40:40;;;;;;;12.32;7.53;;;;;;;;;;5077270;28;20033;-85
2021/10/09 15:43:06;;;;;;;15.35;7.63;;;;;;;;;;5076824;28;20346;-84
2021/10/09 15:45:32;;;;;;;12.40;7.35;;;;;;;;;;5077292;28;20418;-84
2021/10/09 15:48:17;;;;;;;11.55;6.50;;;;;;;;;;5072732;28;20330;-84
2021/10/09 15:50:44;;;;;;;12.02;6.50;;;;;;;;;;5056055;28;20116;-84
2021/10/09 15:53:14;;;;;;;14.10;7.60;;;;;;;;;;5055809;28;20029;-86
2021/10/09 15:55:41;;;;;;;13.30;7.40;;;;;;;;;;5063343;28;20041;-83
2021/10/09 15:58:07;;;;;;;12.95;7.38;;;;;;;;;;5076851;28;20024;-83
2021/10/09 16:00:33;;;;;;;12.90;6.85;;;;;;;;;;5079073;28;20024;-86
2021/10/09 16:03:18;;;;;;;12.20;6.53;;;;;;;;;;5080806;28;20023;-85
2021/10/09 16:05:44;;;;;;;11.65;6.82;;;;;;;;;;5080624;28;20036;-84
2021/10/09 16:08:10;;;;;;;12.23;7.03;;;;;;;;;;5080497;28;20410;-85
2021/10/09 16:10:36;;;;;;;15.32;8.57;;;;;;;;;;5078613;28;20131;-85
2021/10/09 16:13:02;;;;;;;15.95;9.00;;;;;;;;;;5078823;28;20024;-85
2021/10/09 16:15:33;;;;;;;16.98;10.20;;;;;;;;;;5080887;28;20032;-85
2021/10/09 16:18:17;;;;;;;16.42;9.35;;;;;;;;;;5060785;28;20025;-84
2021/10/09 16:20:43;;;;;;;15.63;8.68;;;;;;;;;;5082292;28;20089;-84
2021/10/09 16:23:09;;;;;;;16.50;9.25;;;;;;;;;;5080146;28;20020;-84
2021/10/09 16:25:36;;;;;;;16.95;9.40;;;;;;;;;;5079956;28;20069;-84
2021/10/09 16:28:02;;;;;;;14.05;8.18;;;;;;;;;;5059198;28;20029;-87
2021/10/09 16:30:28;;;;;;;14.63;9.57;;;;;;;;;;5075304;28;20029;-83
2021/10/09 16:32:54;;;;;;;16.40;10.13;;;;;;;;;;5079013;28;20020;-83
2021/10/09 16:35:21;;;;;;;20.10;11.75;;;;;;;;;;5082051;28;20020;-84
2021/10/09 16:37:47;;;;;;;17.30;10.48;;;;;;;;;;5092376;28;20141;-84
2021/10/09 16:40:13;;;;;;;16.55;10.10;;;;;;;;;;5079839;28;20029;-82
2021/10/09 16:42:39;;;;;;;20.58;11.70;;;;;;;;;;5080144;28;20028;-83
2021/10/09 16:45:06;;;;;;;20.83;11.80;;;;;;;;;;5079825;28;20365;-85
2021/10/09 16:47:32;;;;;;;32.42;15.13;;;;;;;;;;5078733;28;20043;-83
2021/10/09 16:49:58;;;;;;;32.58;17.75;;;;;;;;;;5079141;28;20063;-88
2021/10/09 16:52:24;;;;;;;32.72;16.75;;;;;;;;;;5079610;28;20095;-80
2021/10/09 16:54:50;;;;;;;20.92;12.10;;;;;;;;;;5078297;28;20027;-81
2021/10/09 16:57:18;;;;;;;28.98;13.57;;;;;;;;;;5079688;28;20056;-81
2021/10/09 16:59:44;;;;;;;34.17;14.18;;;;;;;;;;5078045;28;20032;-81
2021/10/09 17:02:10;;;;;;;21.70;12.50;;;;;;;;;;5079686;28;20024;-81
2021/10/09 17:04:36;;;;;;;25.38;12.45;;;;;;;;;;5078462;28;20037;-81
2021/10/09 17:07:03;;;;;;;21.63;11.02;;;;;;;;;;5079503;28;20020;-81
2021/10/09 17:09:29;;;;;;;22.05;11.02;;;;;;;;;;5079188;28;20407;-81
2021/10/09 17:11:55;;;;;;;17.13;10.00;;;;;;;;;;5078687;28;20028;-81
2021/10/09 17:14:21;;;;;;;18.83;10.25;;;;;;;;;;5078007;28;20078;-80
2021/10/09 17:16:48;;;;;;;20.98;11.05;;;;;;;;;;5079113;28;20035;-80
2021/10/09 17:19:14;;;;;;;21.85;10.70;;;;;;;;;;5079057;28;20021;-81
2021/10/09 17:21:41;;;;;;;21.65;12.32;;;;;;;;;;5077436;28;20493;-80
2021/10/09 17:24:07;;;;;;;25.70;13.20;;;;;;;;;;5078138;28;20103;-80
2021/10/09 17:26:34;;;;;;;31.60;15.50;;;;;;;;;;5077831;28;20032;-81
2021/10/09 17:29:00;;;;;;;34.08;17.02;;;;;;;;;;5079089;28;20070;-80
2021/10/09 17:31:26;;;;;;;27.13;14.30;;;;;;;;;;5061919;28;20419;-80
2021/10/09 17:33:52;;;;;;;22.50;13.55;;;;;;;;;;5074508;28;20025;-80
2021/10/09 17:36:19;;;;;;;25.77;14.80;;;;;;;;;;5058791;28;20410;-83
2021/10/09 17:38:46;;;;;;;21.35;13.98;;;;;;;;;;5058570;28;20032;-81
2021/10/09 17:41:13;;;;;;;22.40;14.30;;;;;;;;;;5058801;28;20035;-81
2021/10/09 17:43:39;;;;;;;20.70;13.05;;;;;;;;;;5058658;28;20414;-81
2021/10/09 17:46:05;;;;;;;29.75;13.75;;;;;;;;;;5058656;28;20319;-81
2021/10/09 17:48:31;;;;;;;25.20;13.32;;;;;;;;;;5058449;28;20112;-81
2021/10/09 17:50:58;;;;;;;22.73;12.15;;;;;;;;;;5074151;28;20017;-81
2021/10/09 17:53:28;;;;;;;29.17;15.25;;;;;;;;;;5073713;28;20037;-81
2021/10/09 17:55:55;;;;;;;25.90;11.68;;;;;;;;;;5058586;28;20029;-81
2021/10/09 17:58:21;;;;;;;19.48;11.40;;;;;;;;;;5058330;28;20029;-79
2021/10/09 18:00:48;;;;;;;17.88;10.27;;;;;;;;;;5058274;28;20076;-81
2021/10/09 18:03:14;;;;;;;20.13;11.95;;;;;;;;;;5058390;28;20025;-81